sensor_id;sensor_type;location;lat;lon;timestamp;pressure;altitude;pressure_sealevel;temperature;humidity
21988;BME280;11158;53.404;-1.510;2022-09-19T00:00:00;101321.84;;;15.97;52.29
21988;BME280;11158;53.404;-1.510;2022-09-19T00:02:25;101316.19;;;16.27;51.37
21988;BME280;11158;53.404;-1.510;2022-09-19T00:04:52;101316.06;;;16.07;51.79
21988;BME280;11158;53.404;-1.510;2022-09-19T00:07:18;101318.13;;;16.46;50.58
21988;BME280;11158;53.404;-1.510;2022-09-19T00:09:44;101311.59;;;16.69;50.19
21988;BME280;11158;53.404;-1.510;2022-09-19T00:12:10;101310.50;;;17.38;48.42
21988;BME280;11158;53.404;-1.510;2022-09-19T00:14:36;101307.59;;;17.66;47.33
21988;BME280;11158;53.404;-1.510;2022-09-19T00:17:05;101312.38;;;17.91;46.56
21988;BME280;11158;53.404;-1.510;2022-09-19T00:19:32;101312.38;;;17.91;46.77
21988;BME280;11158;53.404;-1.510;2022-09-19T00:22:00;101300.75;;;17.84;46.67
21988;BME280;11158;53.404;-1.510;2022-09-19T00:24:26;101296.78;;;17.93;46.19
21988;BME280;11158;53.404;-1.510;2022-09-19T00:27:19;101302.63;;;17.36;47.79
21988;BME280;11158;53.404;-1.510;2022-09-19T00:29:46;101299.28;;;17.21;48.21
21988;BME280;11158;53.404;-1.510;2022-09-19T00:32:12;101302.38;;;17.31;48.09
21988;BME280;11158;53.404;-1.510;2022-09-19T00:34:43;101297.81;;;17.52;47.54
21988;BME280;11158;53.404;-1.510;2022-09-19T00:37:10;101303.03;;;17.73;47.32
21988;BME280;11158;53.404;-1.510;2022-09-19T00:39:37;101301.38;;;17.86;46.43
21988;BME280;11158;53.404;-1.510;2022-09-19T00:42:03;101312.59;;;17.83;46.42
21988;BME280;11158;53.404;-1.510;2022-09-19T00:47:04;101306.34;;;17.75;46.61
21988;BME280;11158;53.404;-1.510;2022-09-19T00:49:34;101307.81;;;17.85;46.33
21988;BME280;11158;53.404;-1.510;2022-09-19T00:52:06;101307.59;;;17.86;46.49
21988;BME280;11158;53.404;-1.510;2022-09-19T00:54:37;101305.50;;;17.68;47.11
21988;BME280;11158;53.404;-1.510;2022-09-19T00:57:07;101311.34;;;17.72;46.59
21988;BME280;11158;53.404;-1.510;2022-09-19T00:59:35;101314.66;;;17.80;46.57
21988;BME280;11158;53.404;-1.510;2022-09-19T01:02:05;101314.88;;;17.92;46.14
21988;BME280;11158;53.404;-1.510;2022-09-19T01:04:32;101312.16;;;17.99;46.31
21988;BME280;11158;53.404;-1.510;2022-09-19T01:10:05;101302.94;;;18.27;45.64
21988;BME280;11158;53.404;-1.510;2022-09-19T01:17:47;101305.44;;;18.28;46.92
21988;BME280;11158;53.404;-1.510;2022-09-19T01:26:20;101312.56;;;18.03;48.17
21988;BME280;11158;53.404;-1.510;2022-09-19T01:29:00;101307.13;;;18.16;47.85
21988;BME280;11158;53.404;-1.510;2022-09-19T01:31:36;101304.81;;;18.26;47.98
21988;BME280;11158;53.404;-1.510;2022-09-19T01:34:12;101302.88;;;18.40;47.29
21988;BME280;11158;53.404;-1.510;2022-09-19T01:37:03;101306.41;;;18.40;47.59
21988;BME280;11158;53.404;-1.510;2022-09-19T01:39:33;101305.34;;;18.48;47.33
21988;BME280;11158;53.404;-1.510;2022-09-19T01:42:00;101303.69;;;18.47;46.93
21988;BME280;11158;53.404;-1.510;2022-09-19T01:44:28;101305.94;;;18.57;46.86
21988;BME280;11158;53.404;-1.510;2022-09-19T02:00:20;101306.25;;;18.29;47.63
21988;BME280;11158;53.404;-1.510;2022-09-19T02:05:42;101299.63;;;18.11;48.14
21988;BME280;11158;53.404;-1.510;2022-09-19T02:08:15;101303.00;;;18.00;48.46
21988;BME280;11158;53.404;-1.510;2022-09-19T02:10:49;101307.97;;;18.10;48.44
21988;BME280;11158;53.404;-1.510;2022-09-19T02:13:21;101309.63;;;18.17;48.11
21988;BME280;11158;53.404;-1.510;2022-09-19T02:15:55;101298.81;;;18.11;48.27
21988;BME280;11158;53.404;-1.510;2022-09-19T02:18:30;101300.53;;;17.98;48.66
21988;BME280;11158;53.404;-1.510;2022-09-19T02:21:04;101305.50;;;18.02;48.54
21988;BME280;11158;53.404;-1.510;2022-09-19T02:23:37;101305.72;;;17.93;49.27
21988;BME280;11158;53.404;-1.510;2022-09-19T02:26:07;101304.25;;;18.04;49.13
21988;BME280;11158;53.404;-1.510;2022-09-19T02:28:38;101293.88;;;17.94;49.33
21988;BME280;11158;53.404;-1.510;2022-09-19T02:31:05;101299.28;;;17.88;49.10
21988;BME280;11158;53.404;-1.510;2022-09-19T02:33:33;101303.00;;;17.93;49.42
21988;BME280;11158;53.404;-1.510;2022-09-19T02:36:15;101300.53;;;17.65;50.15
21988;BME280;11158;53.404;-1.510;2022-09-19T02:38:58;101297.00;;;17.65;50.37
21988;BME280;11158;53.404;-1.510;2022-09-19T02:41:44;101308.81;;;17.70;50.44
21988;BME280;11158;53.404;-1.510;2022-09-19T02:47:13;101315.06;;;17.04;52.11
21988;BME280;11158;53.404;-1.510;2022-09-19T02:49:54;101310.47;;;17.25;51.74
21988;BME280;11158;53.404;-1.510;2022-09-19T02:52:33;101302.59;;;17.63;50.46
21988;BME280;11158;53.404;-1.510;2022-09-19T02:55:18;101301.34;;;17.72;50.30
21988;BME280;11158;53.404;-1.510;2022-09-19T02:57:48;101304.47;;;17.76;50.02
21988;BME280;11158;53.404;-1.510;2022-09-19T03:00:15;101299.28;;;17.81;49.98
21988;BME280;11158;53.404;-1.510;2022-09-19T03:02:45;101298.22;;;17.89;49.74
21988;BME280;11158;53.404;-1.510;2022-09-19T03:05:15;101304.88;;;17.93;49.57
21988;BME280;11158;53.404;-1.510;2022-09-19T03:07:47;101296.78;;;17.86;49.50
21988;BME280;11158;53.404;-1.510;2022-09-19T03:10:21;101305.94;;;17.65;49.87
21988;BME280;11158;53.404;-1.510;2022-09-19T03:12:55;101297.63;;;17.47;50.77
21988;BME280;11158;53.404;-1.510;2022-09-19T03:15:36;101300.13;;;17.42;51.23
21988;BME280;11158;53.404;-1.510;2022-09-19T03:18:06;101306.16;;;17.57;50.35
21988;BME280;11158;53.404;-1.510;2022-09-19T03:20:37;101300.97;;;17.82;49.78
21988;BME280;11158;53.404;-1.510;2022-09-19T03:23:05;101296.97;;;17.98;49.57
21988;BME280;11158;53.404;-1.510;2022-09-19T03:25:31;101290.34;;;17.87;49.23
21988;BME280;11158;53.404;-1.510;2022-09-19T03:27:57;101289.69;;;17.72;49.89
21988;BME280;11158;53.404;-1.510;2022-09-19T03:30:23;101290.13;;;17.35;50.87
21988;BME280;11158;53.404;-1.510;2022-09-19T03:32:49;101293.88;;;17.34;50.64
21988;BME280;11158;53.404;-1.510;2022-09-19T03:35:15;101293.25;;;17.19;51.01
21988;BME280;11158;53.404;-1.510;2022-09-19T03:37:41;101298.19;;;16.89;51.92
21988;BME280;11158;53.404;-1.510;2022-09-19T03:40:07;101291.75;;;16.96;51.73
21988;BME280;11158;53.404;-1.510;2022-09-19T03:42:33;101294.25;;;16.91;51.89
21988;BME280;11158;53.404;-1.510;2022-09-19T03:45:01;101293.75;;;16.68;52.40
21988;BME280;11158;53.404;-1.510;2022-09-19T03:47:28;101300.19;;;16.73;52.05
21988;BME280;11158;53.404;-1.510;2022-09-19T03:49:54;101293.63;;;16.41;52.86
21988;BME280;11158;53.404;-1.510;2022-09-19T03:52:20;101296.38;;;16.06;54.49
21988;BME280;11158;53.404;-1.510;2022-09-19T03:54:46;101299.78;;;16.22;53.67
21988;BME280;11158;53.404;-1.510;2022-09-19T03:57:13;101310.81;;;16.27;53.53
21988;BME280;11158;53.404;-1.510;2022-09-19T03:59:40;101303.56;;;16.34;53.16
21988;BME280;11158;53.404;-1.510;2022-09-19T04:02:16;101301.31;;;16.44;53.23
21988;BME280;11158;53.404;-1.510;2022-09-19T04:04:49;101297.47;;;16.73;52.41
21988;BME280;11158;53.404;-1.510;2022-09-19T04:07:24;101295.69;;;16.87;51.92
21988;BME280;11158;53.404;-1.510;2022-09-19T04:09:59;101294.06;;;16.93;52.12
21988;BME280;11158;53.404;-1.510;2022-09-19T04:12:24;101293.75;;;16.68;52.08
21988;BME280;11158;53.404;-1.510;2022-09-19T04:14:50;101291.72;;;16.35;53.12
21988;BME280;11158;53.404;-1.510;2022-09-19T04:17:17;101288.44;;;16.40;53.05
21988;BME280;11158;53.404;-1.510;2022-09-19T04:19:43;101293.44;;;16.01;54.51
21988;BME280;11158;53.404;-1.510;2022-09-19T04:22:09;101299.84;;;16.00;54.16
21988;BME280;11158;53.404;-1.510;2022-09-19T04:24:35;101298.34;;;15.91;54.44
21988;BME280;11158;53.404;-1.510;2022-09-19T04:27:08;101296.28;;;15.93;54.71
21988;BME280;11158;53.404;-1.510;2022-09-19T04:29:36;101299.22;;;15.98;54.38
21988;BME280;11158;53.404;-1.510;2022-09-19T04:32:02;101298.47;;;16.52;53.00
21988;BME280;11158;53.404;-1.510;2022-09-19T04:34:29;101303.38;;;16.84;52.04
21988;BME280;11158;53.404;-1.510;2022-09-19T04:36:56;101307.03;;;16.76;52.15
21988;BME280;11158;53.404;-1.510;2022-09-19T04:39:23;101294.47;;;16.96;51.46
21988;BME280;11158;53.404;-1.510;2022-09-19T04:41:49;101304.16;;;16.78;51.75
21988;BME280;11158;53.404;-1.510;2022-09-19T04:44:19;101302.28;;;16.78;51.76
21988;BME280;11158;53.404;-1.510;2022-09-19T04:46:51;101299.16;;;16.74;51.89
21988;BME280;11158;53.404;-1.510;2022-09-19T04:49:17;101299.88;;;16.48;52.51
21988;BME280;11158;53.404;-1.510;2022-09-19T04:51:43;101300.75;;;16.55;52.49
21988;BME280;11158;53.404;-1.510;2022-09-19T04:54:10;101297.56;;;16.93;51.69
21988;BME280;11158;53.404;-1.510;2022-09-19T04:56:36;101297.16;;;17.03;51.49
21988;BME280;11158;53.404;-1.510;2022-09-19T04:59:03;101297.38;;;17.08;50.91
21988;BME280;11158;53.404;-1.510;2022-09-19T05:01:30;101297.16;;;16.96;51.43
21988;BME280;11158;53.404;-1.510;2022-09-19T05:03:57;101298.41;;;17.01;51.23
21988;BME280;11158;53.404;-1.510;2022-09-19T05:06:23;101299.44;;;16.93;51.37
21988;BME280;11158;53.404;-1.510;2022-09-19T05:08:54;101294.25;;;16.98;51.23
21988;BME280;11158;53.404;-1.510;2022-09-19T05:11:20;101296.78;;;16.51;52.43
21988;BME280;11158;53.404;-1.510;2022-09-19T05:13:48;101300.31;;;16.45;52.77
21988;BME280;11158;53.404;-1.510;2022-09-19T05:16:15;101299.88;;;16.48;52.40
21988;BME280;11158;53.404;-1.510;2022-09-19T05:18:42;101288.81;;;16.85;51.76
21988;BME280;11158;53.404;-1.510;2022-09-19T05:21:10;101296.44;;;16.68;51.93
21988;BME280;11158;53.404;-1.510;2022-09-19T05:23:37;101301.28;;;16.79;51.99
21988;BME280;11158;53.404;-1.510;2022-09-19T05:26:06;101296.97;;;16.98;51.35
21988;BME280;11158;53.404;-1.510;2022-09-19T05:28:32;101294.97;;;16.72;51.89
21988;BME280;11158;53.404;-1.510;2022-09-19T05:30:58;101306.28;;;16.82;52.04
21988;BME280;11158;53.404;-1.510;2022-09-19T05:33:25;101299.69;;;17.05;51.63
21988;BME280;11158;53.404;-1.510;2022-09-19T05:35:55;101304.69;;;17.28;50.98
21988;BME280;11158;53.404;-1.510;2022-09-19T05:38:26;101306.97;;;17.51;50.62
21988;BME280;11158;53.404;-1.510;2022-09-19T05:40:52;101301.56;;;17.57;49.54
21988;BME280;11158;53.404;-1.510;2022-09-19T05:43:19;101309.06;;;17.49;49.91
21988;BME280;11158;53.404;-1.510;2022-09-19T05:45:44;101303.22;;;17.52;50.08
21988;BME280;11158;53.404;-1.510;2022-09-19T05:48:10;101312.59;;;17.56;49.90
21988;BME280;11158;53.404;-1.510;2022-09-19T05:50:36;101305.09;;;17.58;49.65
21988;BME280;11158;53.404;-1.510;2022-09-19T05:53:02;101316.31;;;17.68;49.87
21988;BME280;11158;53.404;-1.510;2022-09-19T05:55:46;101310.31;;;17.86;49.11
21988;BME280;11158;53.404;-1.510;2022-09-19T05:58:14;101309.28;;;17.94;49.14
21988;BME280;11158;53.404;-1.510;2022-09-19T06:00:42;101316.75;;;17.98;48.93
21988;BME280;11158;53.404;-1.510;2022-09-19T06:03:11;101322.75;;;18.07;48.78
21988;BME280;11158;53.404;-1.510;2022-09-19T06:05:41;101320.81;;;18.28;47.77
21988;BME280;11158;53.404;-1.510;2022-09-19T06:08:08;101313.84;;;17.47;50.13
21988;BME280;11158;53.404;-1.510;2022-09-19T06:10:37;101317.97;;;17.29;50.35
21988;BME280;11158;53.404;-1.510;2022-09-19T06:13:04;101324.22;;;17.50;49.81
21988;BME280;11158;53.404;-1.510;2022-09-19T06:15:30;101326.31;;;17.68;49.62
21988;BME280;11158;53.404;-1.510;2022-09-19T06:17:57;101332.34;;;17.76;49.74
21988;BME280;11158;53.404;-1.510;2022-09-19T06:20:24;101327.34;;;18.00;48.90
21988;BME280;11158;53.404;-1.510;2022-09-19T06:22:55;101338.56;;;18.10;48.48
21988;BME280;11158;53.404;-1.510;2022-09-19T06:25:21;101332.91;;;18.18;48.45
21988;BME280;11158;53.404;-1.510;2022-09-19T06:27:58;101329.56;;;18.30;48.27
21988;BME280;11158;53.404;-1.510;2022-09-19T06:30:24;101335.78;;;18.37;47.87
21988;BME280;11158;53.404;-1.510;2022-09-19T06:32:52;101340.53;;;18.48;47.30
21988;BME280;11158;53.404;-1.510;2022-09-19T06:35:22;101340.78;;;18.40;46.94
21988;BME280;11158;53.404;-1.510;2022-09-19T06:37:48;101338.78;;;18.09;48.13
21988;BME280;11158;53.404;-1.510;2022-09-19T06:40:16;101339.97;;;18.33;47.41
21988;BME280;11158;53.404;-1.510;2022-09-19T06:42:48;101351.81;;;18.32;47.55
21988;BME280;11158;53.404;-1.510;2022-09-19T06:45:14;101352.22;;;18.42;47.42
21988;BME280;11158;53.404;-1.510;2022-09-19T06:47:40;101358.22;;;18.51;47.14
21988;BME280;11158;53.404;-1.510;2022-09-19T06:50:07;101345.41;;;18.26;47.68
21988;BME280;11158;53.404;-1.510;2022-09-19T06:52:36;101349.75;;;18.27;47.90
21988;BME280;11158;53.404;-1.510;2022-09-19T06:55:02;101355.19;;;18.20;47.70
21988;BME280;11158;53.404;-1.510;2022-09-19T06:57:28;101355.00;;;18.02;48.02
21988;BME280;11158;53.404;-1.510;2022-09-19T06:59:54;101358.75;;;17.48;49.40
21988;BME280;11158;53.404;-1.510;2022-09-19T07:02:19;101360.56;;;17.07;50.64
21988;BME280;11158;53.404;-1.510;2022-09-19T07:04:46;101366.59;;;17.16;50.64
21988;BME280;11158;53.404;-1.510;2022-09-19T07:07:12;101369.53;;;17.21;50.58
21988;BME280;11158;53.404;-1.510;2022-09-19T07:09:38;101372.47;;;17.40;50.28
21988;BME280;11158;53.404;-1.510;2022-09-19T07:12:04;101370.28;;;16.53;52.49
21988;BME280;11158;53.404;-1.510;2022-09-19T07:14:30;101380.41;;;15.60;55.51
21988;BME280;11158;53.404;-1.510;2022-09-19T07:16:56;101382.69;;;15.20;57.05
21988;BME280;11158;53.404;-1.510;2022-09-19T07:19:22;101379.22;;;15.05;58.02
21988;BME280;11158;53.404;-1.510;2022-09-19T07:21:47;101382.03;;;14.97;59.39
21988;BME280;11158;53.404;-1.510;2022-09-19T07:24:13;101383.47;;;15.36;59.29
21988;BME280;11158;53.404;-1.510;2022-09-19T07:26:39;101385.78;;;15.39;59.20
21988;BME280;11158;53.404;-1.510;2022-09-19T07:29:04;101378.34;;;15.84;57.63
21988;BME280;11158;53.404;-1.510;2022-09-19T07:31:30;101376.03;;;16.09;56.70
21988;BME280;11158;53.404;-1.510;2022-09-19T07:33:56;101383.63;;;16.27;56.11
21988;BME280;11158;53.404;-1.510;2022-09-19T07:36:22;101384.19;;;15.87;57.27
21988;BME280;11158;53.404;-1.510;2022-09-19T07:38:49;101386.69;;;15.67;57.73
21988;BME280;11158;53.404;-1.510;2022-09-19T07:41:16;101384.53;;;15.35;59.27
21988;BME280;11158;53.404;-1.510;2022-09-19T07:43:43;101385.50;;;15.48;59.02
21988;BME280;11158;53.404;-1.510;2022-09-19T07:46:08;101385.91;;;15.52;58.73
21988;BME280;11158;53.404;-1.510;2022-09-19T07:48:34;101386.56;;;15.54;58.77
21988;BME280;11158;53.404;-1.510;2022-09-19T07:51:00;101388.84;;;16.00;57.77
21988;BME280;11158;53.404;-1.510;2022-09-19T07:53:28;101388.63;;;16.30;57.14
21988;BME280;11158;53.404;-1.510;2022-09-19T07:55:55;101391.56;;;16.76;55.98
21988;BME280;11158;53.404;-1.510;2022-09-19T07:58:24;101400.03;;;16.67;56.00
21988;BME280;11158;53.404;-1.510;2022-09-19T08:00:51;101393.88;;;16.38;56.87
21988;BME280;11158;53.404;-1.510;2022-09-19T08:03:18;101392.22;;;15.81;58.65
21988;BME280;11158;53.404;-1.510;2022-09-19T08:05:50;101403.50;;;15.12;61.56
21988;BME280;11158;53.404;-1.510;2022-09-19T08:08:20;101398.59;;;15.37;60.96
21988;BME280;11158;53.404;-1.510;2022-09-19T08:10:46;101395.94;;;15.80;59.25
21988;BME280;11158;53.404;-1.510;2022-09-19T08:13:14;101409.41;;;15.80;59.26
21988;BME280;11158;53.404;-1.510;2022-09-19T08:15:44;101415.84;;;15.79;59.08
21988;BME280;11158;53.404;-1.510;2022-09-19T08:18:16;101417.59;;;15.50;59.98
21988;BME280;11158;53.404;-1.510;2022-09-19T08:20:42;101423.88;;;15.14;61.05
21988;BME280;11158;53.404;-1.510;2022-09-19T08:23:11;101419.25;;;15.29;60.78
21988;BME280;11158;53.404;-1.510;2022-09-19T08:25:38;101419.00;;;15.24;60.93
21988;BME280;11158;53.404;-1.510;2022-09-19T08:28:05;101417.97;;;16.11;58.79
21988;BME280;11158;53.404;-1.510;2022-09-19T08:30:32;101413.41;;;16.40;57.96
21988;BME280;11158;53.404;-1.510;2022-09-19T08:33:02;101416.78;;;16.21;58.43
21988;BME280;11158;53.404;-1.510;2022-09-19T08:35:29;101419.13;;;16.30;57.90
21988;BME280;11158;53.404;-1.510;2022-09-19T08:37:58;101414.41;;;17.22;55.31
21988;BME280;11158;53.404;-1.510;2022-09-19T08:40:35;101420.66;;;16.11;57.03
21988;BME280;11158;53.404;-1.510;2022-09-19T08:43:09;101423.84;;;15.94;58.01
21988;BME280;11158;53.404;-1.510;2022-09-19T08:48:21;101433.19;;;15.33;59.21
21988;BME280;11158;53.404;-1.510;2022-09-19T08:51:12;101438.25;;;15.43;59.48
21988;BME280;11158;53.404;-1.510;2022-09-19T08:53:43;101438.34;;;15.49;59.18
21988;BME280;11158;53.404;-1.510;2022-09-19T08:56:11;101436.00;;;15.83;58.64
21988;BME280;11158;53.404;-1.510;2022-09-19T08:58:46;101433.91;;;15.63;59.06
21988;BME280;11158;53.404;-1.510;2022-09-19T09:01:14;101439.94;;;15.44;60.04
21988;BME280;11158;53.404;-1.510;2022-09-19T09:03:51;101445.94;;;15.24;60.58
21988;BME280;11158;53.404;-1.510;2022-09-19T09:06:51;101434.56;;;15.87;59.42
21988;BME280;11158;53.404;-1.510;2022-09-19T09:09:28;101437.78;;;16.25;58.00
21988;BME280;11158;53.404;-1.510;2022-09-19T09:15:22;101438.84;;;17.01;55.19
21988;BME280;11158;53.404;-1.510;2022-09-19T09:18:16;101437.59;;;16.96;54.91
21988;BME280;11158;53.404;-1.510;2022-09-19T09:21:15;101431.53;;;17.63;53.60
21988;BME280;11158;53.404;-1.510;2022-09-19T09:23:46;101436.16;;;17.89;52.24
21988;BME280;11158;53.404;-1.510;2022-09-19T09:26:15;101433.97;;;18.71;50.42
21988;BME280;11158;53.404;-1.510;2022-09-19T09:29:01;101434.06;;;18.31;50.24
21988;BME280;11158;53.404;-1.510;2022-09-19T09:31:38;101432.97;;;18.52;49.93
21988;BME280;11158;53.404;-1.510;2022-09-19T09:34:10;101441.53;;;17.62;52.00
21988;BME280;11158;53.404;-1.510;2022-09-19T09:36:53;101446.72;;;17.57;53.04
21988;BME280;11158;53.404;-1.510;2022-09-19T09:39:27;101442.19;;;18.17;50.79
21988;BME280;11158;53.404;-1.510;2022-09-19T09:42:02;101445.72;;;18.11;51.24
21988;BME280;11158;53.404;-1.510;2022-09-19T09:47:17;101451.47;;;16.87;54.52
21988;BME280;11158;53.404;-1.510;2022-09-19T09:49:45;101450.50;;;17.08;54.04
21988;BME280;11158;53.404;-1.510;2022-09-19T09:58:19;101457.28;;;17.38;54.32
21988;BME280;11158;53.404;-1.510;2022-09-19T10:01:14;101447.88;;;17.28;53.45
21988;BME280;11158;53.404;-1.510;2022-09-19T10:04:41;101456.84;;;17.35;53.67
21988;BME280;11158;53.404;-1.510;2022-09-19T10:09:49;101442.59;;;16.30;55.48
21988;BME280;11158;53.404;-1.510;2022-09-19T10:12:31;101451.09;;;16.05;55.78
21988;BME280;11158;53.404;-1.510;2022-09-19T10:15:03;101452.81;;;16.76;54.30
21988;BME280;11158;53.404;-1.510;2022-09-19T10:17:33;101449.66;;;17.01;54.20
21988;BME280;11158;53.404;-1.510;2022-09-19T10:20:08;101454.59;;;16.90;53.10
21988;BME280;11158;53.404;-1.510;2022-09-19T10:22:37;101452.56;;;16.99;53.26
21988;BME280;11158;53.404;-1.510;2022-09-19T10:25:12;101452.88;;;16.48;54.44
21988;BME280;11158;53.404;-1.510;2022-09-19T10:27:39;101456.09;;;16.65;54.53
21988;BME280;11158;53.404;-1.510;2022-09-19T10:30:22;101455.88;;;16.31;54.68
21988;BME280;11158;53.404;-1.510;2022-09-19T10:32:51;101455.22;;;16.58;54.76
21988;BME280;11158;53.404;-1.510;2022-09-19T10:35:30;101456.66;;;15.76;57.01
21988;BME280;11158;53.404;-1.510;2022-09-19T10:40:59;101466.19;;;15.20;59.04
21988;BME280;11158;53.404;-1.510;2022-09-19T10:43:44;101447.63;;;15.47;58.32
21988;BME280;11158;53.404;-1.510;2022-09-19T10:46:21;101462.16;;;14.95;59.77
21988;BME280;11158;53.404;-1.510;2022-09-19T10:48:54;101446.72;;;15.40;58.72
21988;BME280;11158;53.404;-1.510;2022-09-19T10:51:21;101454.31;;;15.94;57.19
21988;BME280;11158;53.404;-1.510;2022-09-19T10:53:54;101444.69;;;16.06;56.62
21988;BME280;11158;53.404;-1.510;2022-09-19T10:56:28;101446.28;;;16.01;55.79
21988;BME280;11158;53.404;-1.510;2022-09-19T10:59:00;101447.88;;;16.45;54.55
21988;BME280;11158;53.404;-1.510;2022-09-19T11:01:28;101446.66;;;16.82;54.04
21988;BME280;11158;53.404;-1.510;2022-09-19T11:07:02;101452.78;;;16.98;53.72
21988;BME280;11158;53.404;-1.510;2022-09-19T11:09:33;101450.47;;;16.60;54.49
21988;BME280;11158;53.404;-1.510;2022-09-19T11:12:04;101456.09;;;16.65;54.72
21988;BME280;11158;53.404;-1.510;2022-09-19T11:14:31;101450.47;;;16.60;54.15
21988;BME280;11158;53.404;-1.510;2022-09-19T11:31:20;101466.44;;;14.89;59.44
21988;BME280;11158;53.404;-1.510;2022-09-19T11:37:13;101457.53;;;15.61;58.02
21988;BME280;11158;53.404;-1.510;2022-09-19T11:43:15;101472.06;;;15.09;59.76
21988;BME280;11158;53.404;-1.510;2022-09-19T11:45:54;101468.78;;;15.50;58.62
21988;BME280;11158;53.404;-1.510;2022-09-19T11:51:21;101459.88;;;16.36;56.31
21988;BME280;11158;53.404;-1.510;2022-09-19T11:56:36;101461.47;;;16.02;57.02
21988;BME280;11158;53.404;-1.510;2022-09-19T12:10:26;101462.75;;;17.78;51.17
21988;BME280;11158;53.404;-1.510;2022-09-19T12:13:26;101462.38;;;18.35;50.16
21988;BME280;11158;53.404;-1.510;2022-09-19T12:16:05;101463.78;;;19.29;48.06
21988;BME280;11158;53.404;-1.510;2022-09-19T12:18:41;101456.41;;;19.43;47.73
21988;BME280;11158;53.404;-1.510;2022-09-19T12:21:09;101461.09;;;19.61;47.80
21988;BME280;11158;53.404;-1.510;2022-09-19T12:23:47;101459.31;;;19.03;48.26
21988;BME280;11158;53.404;-1.510;2022-09-19T12:29:25;101447.19;;;21.25;43.75
21988;BME280;11158;53.404;-1.510;2022-09-19T12:32:04;101434.84;;;21.83;41.24
21988;BME280;11158;53.404;-1.510;2022-09-19T12:34:39;101434.69;;;22.43;40.19
21988;BME280;11158;53.404;-1.510;2022-09-19T12:37:22;101433.88;;;22.83;39.18
21988;BME280;11158;53.404;-1.510;2022-09-19T12:40:01;101434.66;;;22.55;39.90
21988;BME280;11158;53.404;-1.510;2022-09-19T12:46:10;101429.41;;;23.17;39.20
21988;BME280;11158;53.404;-1.510;2022-09-19T12:54:20;101429.00;;;20.58;43.56
21988;BME280;11158;53.404;-1.510;2022-09-19T12:56:54;101437.34;;;20.13;44.08
21988;BME280;11158;53.404;-1.510;2022-09-19T12:59:23;101436.53;;;20.56;43.07
21988;BME280;11158;53.404;-1.510;2022-09-19T13:01:55;101423.19;;;21.22;41.85
21988;BME280;11158;53.404;-1.510;2022-09-19T13:07:34;101428.84;;;21.92;41.22
21988;BME280;11158;53.404;-1.510;2022-09-19T13:12:40;101428.22;;;20.88;42.14
21988;BME280;11158;53.404;-1.510;2022-09-19T13:15:32;101429.00;;;20.33;43.47
21988;BME280;11158;53.404;-1.510;2022-09-19T13:18:00;101425.66;;;20.75;42.90
21988;BME280;11158;53.404;-1.510;2022-09-19T13:20:46;101430.16;;;19.75;44.86
21988;BME280;11158;53.404;-1.510;2022-09-19T13:23:33;101431.19;;;20.24;43.90
21988;BME280;11158;53.404;-1.510;2022-09-19T13:28:58;101420.50;;;20.29;43.68
21988;BME280;11158;53.404;-1.510;2022-09-19T13:37:00;101419.56;;;19.92;44.64
21988;BME280;11158;53.404;-1.510;2022-09-19T13:39:43;101424.06;;;19.10;46.68
21988;BME280;11158;53.404;-1.510;2022-09-19T13:42:18;101420.72;;;18.36;48.39
21988;BME280;11158;53.404;-1.510;2022-09-19T13:44:58;101411.97;;;18.47;47.95
21988;BME280;11158;53.404;-1.510;2022-09-19T13:47:28;101418.97;;;18.75;48.04
21988;BME280;11158;53.404;-1.510;2022-09-19T13:52:40;101402.00;;;19.95;45.40
21988;BME280;11158;53.404;-1.510;2022-09-19T13:57:41;101392.59;;;20.96;43.02
21988;BME280;11158;53.404;-1.510;2022-09-19T14:00:29;101393.38;;;21.45;42.71
21988;BME280;11158;53.404;-1.510;2022-09-19T14:03:01;101392.38;;;21.82;40.54
21988;BME280;11158;53.404;-1.510;2022-09-19T14:05:33;101389.22;;;22.08;40.23
21988;BME280;11158;53.404;-1.510;2022-09-19T14:08:01;101383.41;;;21.93;39.94
21988;BME280;11158;53.404;-1.510;2022-09-19T14:21:03;101396.88;;;19.55;45.49
21988;BME280;11158;53.404;-1.510;2022-09-19T14:23:34;101389.41;;;19.82;44.68
21988;BME280;11158;53.404;-1.510;2022-09-19T14:26:01;101385.03;;;20.24;43.81
21988;BME280;11158;53.404;-1.510;2022-09-19T14:43:08;101379.47;;;22.12;39.68
21988;BME280;11158;53.404;-1.510;2022-09-19T14:48:39;101386.00;;;22.00;40.19
21988;BME280;11158;53.404;-1.510;2022-09-19T14:53:43;101384.84;;;20.63;41.88
21988;BME280;11158;53.404;-1.510;2022-09-19T14:56:12;101385.47;;;20.03;43.31
21988;BME280;11158;53.404;-1.510;2022-09-19T14:58:40;101387.06;;;19.85;44.34
21988;BME280;11158;53.404;-1.510;2022-09-19T15:06:34;101393.13;;;20.49;42.76
21988;BME280;11158;53.404;-1.510;2022-09-19T15:09:02;101387.91;;;21.03;41.53
21988;BME280;11158;53.404;-1.510;2022-09-19T15:11:30;101391.28;;;20.68;40.93
21988;BME280;11158;53.404;-1.510;2022-09-19T15:13:56;101396.31;;;20.83;41.31
21988;BME280;11158;53.404;-1.510;2022-09-19T15:16:24;101392.22;;;20.92;41.38
21988;BME280;11158;53.404;-1.510;2022-09-19T15:18:51;101390.28;;;21.11;40.58
21988;BME280;11158;53.404;-1.510;2022-09-19T15:21:22;101391.75;;;21.56;39.54
21988;BME280;11158;53.404;-1.510;2022-09-19T15:23:52;101391.75;;;20.96;40.68
21988;BME280;11158;53.404;-1.510;2022-09-19T15:26:21;101378.06;;;21.86;38.88
21988;BME280;11158;53.404;-1.510;2022-09-19T15:31:22;101367.50;;;21.12;39.52
21988;BME280;11158;53.404;-1.510;2022-09-19T15:34:00;101376.66;;;21.00;39.72
21988;BME280;11158;53.404;-1.510;2022-09-19T15:36:28;101373.88;;;21.18;39.83
21988;BME280;11158;53.404;-1.510;2022-09-19T15:38:56;101364.81;;;21.24;39.91
21988;BME280;11158;53.404;-1.510;2022-09-19T15:41:26;101370.34;;;20.32;41.38
21988;BME280;11158;53.404;-1.510;2022-09-19T15:43:55;101363.84;;;19.64;41.59
21988;BME280;11158;53.404;-1.510;2022-09-19T15:46:32;101372.91;;;19.27;42.58